Time;durP1;ratioP1;P1;durP2;ratioP2;P2;SDS_P1;SDS_P2;PMS_P1;PMS_P2;Temp;Humidity;BMP_temperature;BMP_pressure;BME280_temperature;BME280_humidity;BME280_pressure;Samples;Min_cycle;Max_cycle;Signal;HPM_P1;HPM_P2
2023/11/05 00:02:17;;;;;;;7.90;1.13;;;9.10;99.90;;;;;;5025607;28;20414;-68
2023/11/05 00:04:43;;;;;;;14.60;1.90;;;9.10;99.90;;;;;;5023153;28;20036;-68
2023/11/05 00:07:09;;;;;;;5.88;1.50;;;9.10;99.90;;;;;;5025209;28;20030;-68
2023/11/05 00:09:34;;;;;;;5.18;0.98;;;9.10;99.90;;;;;;5025461;28;20037;-69
2023/11/05 00:12:00;;;;;;;10.57;1.45;;;9.20;99.90;;;;;;5026898;28;20063;-68
2023/11/05 00:14:26;;;;;;;4.13;0.95;;;9.20;99.90;;;;;;5024748;28;20060;-68
2023/11/05 00:16:51;;;;;;;4.38;1.33;;;9.20;99.90;;;;;;5021773;28;20021;-69
2023/11/05 00:19:17;;;;;;;8.30;1.73;;;9.20;99.90;;;;;;5008737;28;20562;-69
2023/11/05 00:21:44;;;;;;;11.00;1.48;;;9.20;99.90;;;;;;5026583;28;20738;-69
2023/11/05 00:24:16;;;;;;;7.80;1.73;;;9.20;99.90;;;;;;5024557;28;20053;-68
2023/11/05 00:26:42;;;;;;;6.13;1.92;;;9.30;99.90;;;;;;5022328;28;20040;-68
2023/11/05 00:29:08;;;;;;;12.60;1.45;;;9.30;99.90;;;;;;5025260;28;20021;-68
2023/11/05 00:31:33;;;;;;;9.38;1.70;;;9.30;99.90;;;;;;5026354;28;20395;-68
2023/11/05 00:33:59;;;;;;;4.68;0.85;;;9.20;99.90;;;;;;5003708;28;20079;-68
2023/11/05 00:36:24;;;;;;;6.40;1.15;;;9.20;99.90;;;;;;5023281;28;20030;-70
2023/11/05 00:38:55;;;;;;;5.97;1.73;;;9.20;99.90;;;;;;5024076;28;20041;-67
2023/11/05 00:41:21;;;;;;;5.15;1.20;;;9.20;99.90;;;;;;5024135;28;20021;-68
2023/11/05 00:43:47;;;;;;;5.15;0.95;;;9.20;99.90;;;;;;5022644;28;20037;-68
2023/11/05 00:46:12;;;;;;;13.23;1.85;;;9.20;99.90;;;;;;5025600;28;20029;-68
2023/11/05 00:48:38;;;;;;;13.50;1.48;;;9.10;99.90;;;;;;5022488;28;20033;-68
2023/11/05 00:51:05;;;;;;;9.98;1.70;;;9.20;99.90;;;;;;5024415;28;20495;-67
2023/11/05 00:53:31;;;;;;;8.80;2.00;;;9.20;99.90;;;;;;5025338;28;20033;-68
2023/11/05 00:55:57;;;;;;;11.48;1.45;;;9.20;99.90;;;;;;5022415;28;20025;-68
2023/11/05 00:58:22;;;;;;;8.27;1.92;;;9.30;99.90;;;;;;5023959;28;20395;-68
2023/11/05 01:00:48;;;;;;;6.95;1.60;;;9.30;99.90;;;;;;5023515;28;20036;-68
2023/11/05 01:03:13;;;;;;;5.03;1.60;;;9.30;99.90;;;;;;5022610;28;20126;-68
2023/11/05 01:05:39;;;;;;;6.07;1.33;;;9.30;99.90;;;;;;5023942;28;20061;-68
2023/11/05 01:08:05;;;;;;;10.80;1.10;;;9.40;99.90;;;;;;5021357;28;20144;-68
2023/11/05 01:10:30;;;;;;;9.07;2.28;;;9.40;99.90;;;;;;5020448;28;20040;-68
2023/11/05 01:12:56;;;;;;;4.47;1.35;;;9.50;99.90;;;;;;5022185;28;20509;-68
2023/11/05 01:15:22;;;;;;;7.57;1.88;;;9.50;99.90;;;;;;5018885;28;20507;-67
2023/11/05 01:17:48;;;;;;;7.80;1.10;;;9.50;99.90;;;;;;5021894;28;20065;-69
2023/11/05 01:20:14;;;;;;;11.38;2.60;;;9.50;99.90;;;;;;5009557;28;20056;-68
2023/11/05 01:22:40;;;;;;;10.07;2.72;;;9.50;99.90;;;;;;5022173;28;20033;-68
2023/11/05 01:25:06;;;;;;;14.25;2.42;;;9.50;99.90;;;;;;5021112;28;20072;-68
2023/11/05 01:27:31;;;;;;;6.13;1.52;;;9.60;99.90;;;;;;5022300;28;20067;-68
2023/11/05 01:29:57;;;;;;;9.52;1.40;;;9.60;99.90;;;;;;5023404;28;20392;-67
2023/11/05 01:32:23;;;;;;;5.95;1.52;;;9.60;99.90;;;;;;5023170;28;20522;-69
2023/11/05 01:34:48;;;;;;;6.18;1.20;;;9.60;99.90;;;;;;5024534;28;20689;-69
2023/11/05 01:37:14;;;;;;;6.07;2.30;;;9.60;99.90;;;;;;5025407;28;20044;-68
2023/11/05 01:39:43;;;;;;;9.90;1.45;;;9.70;99.90;;;;;;5002958;28;20081;-68
2023/11/05 01:42:08;;;;;;;6.40;2.28;;;9.70;99.90;;;;;;5015591;28;20100;-68
2023/11/05 01:44:34;;;;;;;7.65;2.00;;;9.60;99.90;;;;;;5024400;28;20108;-68
2023/11/05 01:47:00;;;;;;;7.28;1.42;;;9.70;99.90;;;;;;5023239;28;20068;-68
2023/11/05 01:49:26;;;;;;;12.57;2.03;;;9.60;99.90;;;;;;5025258;28;20045;-68
2023/11/05 01:51:53;;;;;;;8.85;1.38;;;9.60;99.90;;;;;;5026791;28;20029;-68
2023/11/05 01:54:19;;;;;;;2.63;1.30;;;9.70;99.90;;;;;;5023313;28;20041;-68
2023/11/05 01:56:45;;;;;;;11.77;1.85;;;9.70;99.90;;;;;;5027941;28;20423;-68
2023/11/05 01:59:10;;;;;;;7.90;1.20;;;9.70;99.90;;;;;;5027658;28;20144;-68
2023/11/05 02:01:38;;;;;;;6.50;1.08;;;9.70;99.90;;;;;;5027604;28;20029;-67
2023/11/05 02:04:03;;;;;;;7.55;1.40;;;9.70;99.90;;;;;;5027976;28;20171;-67
2023/11/05 02:06:29;;;;;;;14.70;1.98;;;9.70;99.90;;;;;;5027778;28;20049;-67
2023/11/05 02:08:55;;;;;;;10.30;1.45;;;9.70;99.90;;;;;;5027076;28;20033;-67
2023/11/05 02:11:20;;;;;;;7.38;1.58;;;9.70;99.90;;;;;;5026876;28;20029;-67
2023/11/05 02:13:51;;;;;;;4.25;1.10;;;9.70;99.90;;;;;;5027733;28;20029;-68
2023/11/05 02:16:19;;;;;;;10.82;1.35;;;9.60;99.90;;;;;;5029723;28;20014;-68
2023/11/05 02:18:46;;;;;;;5.38;1.15;;;9.60;99.90;;;;;;5008936;28;20030;-67
2023/11/05 02:21:26;;;;;;;13.23;1.60;;;9.60;99.90;;;;;;5027324;28;20029;-67
2023/11/05 02:23:51;;;;;;;9.35;1.65;;;9.60;99.90;;;;;;5026902;28;20040;-68
2023/11/05 02:26:17;;;;;;;3.90;1.02;;;9.60;99.90;;;;;;5027429;28;20025;-68
2023/11/05 02:28:43;;;;;;;8.23;2.15;;;9.60;99.90;;;;;;5029030;28;20029;-68
2023/11/05 02:31:09;;;;;;;8.55;2.20;;;9.60;99.90;;;;;;5026788;28;20030;-68
2023/11/05 02:33:41;;;;;;;5.63;1.67;;;9.60;99.90;;;;;;5028823;28;20374;-68
2023/11/05 02:36:07;;;;;;;3.58;1.33;;;9.60;99.90;;;;;;5025434;28;20052;-68
2023/11/05 02:38:33;;;;;;;7.22;1.35;;;9.60;99.90;;;;;;5028318;28;20055;-67
2023/11/05 02:40:58;;;;;;;3.08;1.30;;;9.60;99.90;;;;;;5026950;28;20744;-68
2023/11/05 02:43:24;;;;;;;5.03;0.90;;;9.60;99.90;;;;;;5028892;28;20136;-68
2023/11/05 02:45:49;;;;;;;6.10;1.02;;;9.60;99.90;;;;;;5026120;28;20063;-69
2023/11/05 02:48:15;;;;;;;5.57;1.33;;;9.60;99.90;;;;;;5028974;28;20124;-68
2023/11/05 02:50:40;;;;;;;2.13;1.00;;;9.60;99.90;;;;;;5025951;28;20040;-68
2023/11/05 02:53:08;;;;;;;9.02;1.27;;;9.60;99.90;;;;;;5026492;28;20033;-68
2023/11/05 02:55:33;;;;;;;6.55;1.00;;;9.60;99.90;;;;;;5028269;28;20511;-68
2023/11/05 02:57:59;;;;;;;5.57;0.95;;;9.70;99.90;;;;;;5033837;28;20118;-67
2023/11/05 03:00:28;;;;;;;5.88;2.35;;;9.70;99.90;;;;;;5026401;28;20025;-67
2023/11/05 03:02:53;;;;;;;8.18;1.25;;;9.70;99.90;;;;;;5028041;28;20025;-68
2023/11/05 03:05:19;;;;;;;2.03;0.77;;;9.70;99.90;;;;;;5026949;28;22274;-68
2023/11/05 03:07:45;;;;;;;2.42;0.90;;;9.70;99.90;;;;;;5028518;28;20026;-68
2023/11/05 03:10:10;;;;;;;1.65;0.98;;;9.70;99.90;;;;;;5027782;28;20035;-68
2023/11/05 03:12:36;;;;;;;4.07;1.10;;;9.70;99.90;;;;;;5028303;28;20036;-68
2023/11/05 03:15:01;;;;;;;5.07;1.20;;;9.70;99.90;;;;;;5028067;28;20030;-67
2023/11/05 03:17:27;;;;;;;4.63;0.98;;;9.70;99.90;;;;;;5028437;28;20028;-68
2023/11/05 03:19:53;;;;;;;6.82;1.10;;;9.70;99.90;;;;;;5003508;28;20059;-68
2023/11/05 03:22:19;;;;;;;4.82;0.98;;;9.70;99.90;;;;;;5025635;28;20032;-68
2023/11/05 03:24:45;;;;;;;2.58;1.13;;;9.70;99.90;;;;;;5028177;28;20025;-68
2023/11/05 03:27:10;;;;;;;6.78;1.40;;;9.70;99.90;;;;;;5027990;28;20029;-68
2023/11/05 03:29:36;;;;;;;1.65;0.98;;;9.70;99.90;;;;;;5028242;28;20032;-68
2023/11/05 03:32:02;;;;;;;1.88;0.80;;;9.70;99.90;;;;;;5026768;28;20033;-68
2023/11/05 03:34:28;;;;;;;4.13;1.10;;;9.70;99.90;;;;;;5027216;28;20087;-67
2023/11/05 03:36:53;;;;;;;5.25;1.23;;;9.70;99.90;;;;;;5026267;28;21782;-68
2023/11/05 03:39:19;;;;;;;1.80;0.90;;;9.70;99.90;;;;;;5028249;28;20021;-68
2023/11/05 03:41:44;;;;;;;2.88;0.88;;;9.70;99.90;;;;;;5023424;28;20060;-68
2023/11/05 03:44:10;;;;;;;4.50;0.80;;;9.70;99.90;;;;;;5028137;28;20025;-68
2023/11/05 03:46:39;;;;;;;6.63;1.13;;;9.70;99.90;;;;;;5024330;28;20083;-68
2023/11/05 03:49:05;;;;;;;1.65;0.73;;;9.70;99.90;;;;;;5024082;28;20026;-68
2023/11/05 03:51:30;;;;;;;1.70;0.77;;;9.70;99.90;;;;;;5026923;28;20395;-68
2023/11/05 03:53:56;;;;;;;4.68;1.05;;;9.70;99.90;;;;;;5027068;28;20040;-67
2023/11/05 03:56:22;;;;;;;6.60;0.65;;;9.70;99.90;;;;;;5027930;28;20116;-68
2023/11/05 03:58:47;;;;;;;2.17;0.50;;;9.70;99.90;;;;;;5027148;28;20041;-68
2023/11/05 04:01:18;;;;;;;2.90;0.60;;;9.70;99.90;;;;;;5026252;28;20052;-68
2023/11/05 04:03:44;;;;;;;2.10;0.82;;;9.70;99.90;;;;;;5027562;28;20427;-68
2023/11/05 04:06:09;;;;;;;2.80;0.60;;;9.70;99.90;;;;;;5026679;28;20096;-68
2023/11/05 04:08:35;;;;;;;4.22;0.57;;;9.80;99.90;;;;;;5026179;28;20052;-68
2023/11/05 04:11:00;;;;;;;1.30;0.65;;;9.80;99.90;;;;;;5027325;28;20087;-68
2023/11/05 04:13:26;;;;;;;2.78;0.60;;;9.80;99.90;;;;;;5026992;28;20048;-67
2023/11/05 04:15:52;;;;;;;0.90;0.55;;;9.80;99.90;;;;;;5026107;28;20398;-68
2023/11/05 04:18:18;;;;;;;0.73;0.40;;;9.80;99.90;;;;;;5027661;28;20022;-68
2023/11/05 04:20:44;;;;;;;0.60;0.60;;;9.80;99.90;;;;;;5009542;28;20060;-67
2023/11/05 04:23:10;;;;;;;1.30;0.63;;;9.80;99.90;;;;;;5027312;28;20426;-66
2023/11/05 04:25:36;;;;;;;1.48;0.50;;;9.80;99.90;;;;;;5027594;28;20021;-67
2023/11/05 04:28:02;;;;;;;5.22;0.50;;;9.80;99.90;;;;;;5026009;28;20483;-68
2023/11/05 04:30:28;;;;;;;1.20;0.40;;;9.90;99.90;;;;;;5025778;28;20036;-68
2023/11/05 04:32:53;;;;;;;4.32;0.98;;;9.90;99.90;;;;;;5024577;28;20418;-67
2023/11/05 04:35:19;;;;;;;6.88;0.52;;;9.90;99.90;;;;;;5027529;28;20029;-67
2023/11/05 04:37:44;;;;;;;4.65;0.77;;;9.90;99.90;;;;;;5025707;28;20029;-68
2023/11/05 04:40:11;;;;;;;2.78;0.60;;;9.90;99.90;;;;;;5026060;28;21217;-68
2023/11/05 04:42:36;;;;;;;2.20;0.70;;;9.90;99.90;;;;;;5027200;28;20030;-70
2023/11/05 04:45:02;;;;;;;1.00;0.63;;;9.90;99.90;;;;;;5026889;28;20030;-67
2023/11/05 04:47:27;;;;;;;4.20;0.50;;;9.90;99.90;;;;;;5025739;28;20526;-67
2023/11/05 04:49:53;;;;;;;4.03;0.60;;;9.90;99.90;;;;;;5025789;28;20034;-68
2023/11/05 04:52:19;;;;;;;2.00;0.57;;;9.90;99.90;;;;;;5025901;28;20034;-67
2023/11/05 04:54:44;;;;;;;0.55;0.40;;;9.90;99.90;;;;;;5027004;28;20033;-68
2023/11/05 04:57:10;;;;;;;3.55;0.90;;;9.80;99.90;;;;;;5026468;28;20101;-67
2023/11/05 04:59:39;;;;;;;2.25;0.60;;;9.90;99.90;;;;;;5026090;28;20111;-67
2023/11/05 05:02:05;;;;;;;4.93;0.93;;;9.90;99.90;;;;;;5024615;28;20028;-68
2023/11/05 05:04:31;;;;;;;2.55;0.52;;;9.90;99.90;;;;;;5026691;28;20056;-67
2023/11/05 05:06:56;;;;;;;0.98;0.70;;;9.90;99.90;;;;;;5025574;28;20048;-67
2023/11/05 05:09:22;;;;;;;2.95;0.55;;;9.90;99.90;;;;;;5026418;28;20542;-69
2023/11/05 05:11:47;;;;;;;2.40;0.50;;;9.90;99.90;;;;;;5025041;28;20379;-69
2023/11/05 05:14:13;;;;;;;2.22;0.50;;;9.90;99.90;;;;;;5025345;28;20033;-69
2023/11/05 05:16:39;;;;;;;1.52;0.57;;;9.90;99.90;;;;;;5026166;28;20033;-68
2023/11/05 05:19:04;;;;;;;1.10;0.60;;;9.90;99.90;;;;;;5026673;28;20025;-69
2023/11/05 05:21:30;;;;;;;0.75;0.47;;;10.00;99.90;;;;;;5004741;28;20534;-69
2023/11/05 05:23:55;;;;;;;0.88;0.40;;;10.00;99.90;;;;;;5026360;28;20044;-69
2023/11/05 05:26:21;;;;;;;0.88;0.40;;;10.00;99.90;;;;;;5026938;28;20025;-69
2023/11/05 05:28:47;;;;;;;3.08;1.40;;;10.00;99.90;;;;;;5024543;28;20041;-69
2023/11/05 05:31:14;;;;;;;1.40;0.45;;;10.00;99.90;;;;;;5023380;28;20033;-69
2023/11/05 05:33:40;;;;;;;2.33;0.63;;;10.00;99.90;;;;;;5025524;28;20025;-69
2023/11/05 05:36:06;;;;;;;4.18;0.60;;;10.00;99.90;;;;;;5025831;28;20021;-69
2023/11/05 05:38:33;;;;;;;5.35;0.68;;;10.00;99.90;;;;;;5026306;28;20080;-69
2023/11/05 05:40:59;;;;;;;1.95;0.50;;;9.90;99.90;;;;;;5025925;28;20017;-69
2023/11/05 05:43:24;;;;;;;0.43;0.43;;;9.90;99.90;;;;;;5024946;28;20091;-69
2023/11/05 05:45:50;;;;;;;1.70;0.50;;;9.90;99.90;;;;;;5024980;28;20029;-69
2023/11/05 05:48:16;;;;;;;0.65;0.57;;;9.80;99.90;;;;;;5025182;28;20081;-69
2023/11/05 05:50:41;;;;;;;1.70;0.40;;;9.80;99.90;;;;;;5026703;28;20037;-69
2023/11/05 05:53:07;;;;;;;0.65;0.45;;;9.80;99.90;;;;;;5025593;28;20116;-68
2023/11/05 05:55:32;;;;;;;0.85;0.43;;;9.80;99.90;;;;;;5024967;28;20079;-69
2023/11/05 05:57:59;;;;;;;2.30;0.43;;;9.70;99.90;;;;;;5023539;28;20030;-67
2023/11/05 06:00:24;;;;;;;2.38;0.70;;;9.70;99.90;;;;;;5025287;28;20018;-68
2023/11/05 06:02:50;;;;;;;1.42;0.40;;;9.70;99.90;;;;;;5025520;28;20115;-68
2023/11/05 06:05:16;;;;;;;0.77;0.40;;;9.70;99.90;;;;;;5023577;28;20043;-68
2023/11/05 06:07:42;;;;;;;0.40;0.40;;;9.60;99.90;;;;;;5025446;28;20104;-67
2023/11/05 06:10:09;;;;;;;1.95;0.35;;;9.60;99.90;;;;;;5024869;28;20022;-67
2023/11/05 06:12:35;;;;;;;0.98;0.52;;;9.60;99.90;;;;;;5024158;28;21267;-68
2023/11/05 06:15:02;;;;;;;2.30;0.52;;;9.60;99.90;;;;;;5025321;28;20116;-68
2023/11/05 06:17:27;;;;;;;0.50;0.50;;;9.50;99.90;;;;;;5023592;28;20033;-67
2023/11/05 06:19:53;;;;;;;3.75;0.52;;;9.50;99.90;;;;;;5011908;28;20442;-67
2023/11/05 06:22:19;;;;;;;2.65;0.40;;;9.50;99.90;;;;;;5025712;28;20076;-67
2023/11/05 06:24:44;;;;;;;2.65;0.52;;;9.50;99.90;;;;;;5023803;28;20048;-67
2023/11/05 06:27:10;;;;;;;1.55;0.50;;;9.50;99.90;;;;;;5024777;28;20029;-67
2023/11/05 06:29:35;;;;;;;2.38;0.55;;;9.50;99.90;;;;;;5024539;28;20108;-68
2023/11/05 06:32:01;;;;;;;2.38;0.57;;;9.50;99.90;;;;;;5022574;28;20033;-68
2023/11/05 06:34:26;;;;;;;0.77;0.43;;;9.50;99.90;;;;;;5028645;28;20112;-67
2023/11/05 06:36:59;;;;;;;0.52;0.30;;;9.50;99.90;;;;;;5029175;28;20033;-67
2023/11/05 06:39:27;;;;;;;0.45;0.40;;;9.50;99.90;;;;;;5028657;28;20045;-67
2023/11/05 06:41:53;;;;;;;0.65;0.30;;;9.50;99.90;;;;;;5027901;28;20030;-67
2023/11/05 06:44:18;;;;;;;2.50;0.47;;;9.50;99.90;;;;;;5027794;28;20095;-68
2023/11/05 06:46:44;;;;;;;4.88;0.60;;;9.60;99.90;;;;;;5027149;28;20439;-68
2023/11/05 06:49:10;;;;;;;0.52;0.50;;;9.60;99.90;;;;;;5027505;28;20053;-68
2023/11/05 06:51:35;;;;;;;0.38;0.35;;;9.60;99.90;;;;;;5028782;28;20029;-67
2023/11/05 06:54:01;;;;;;;1.60;0.30;;;9.70;99.90;;;;;;5027947;28;20391;-69
2023/11/05 06:56:27;;;;;;;0.85;0.47;;;9.70;99.90;;;;;;5027414;28;20025;-68
2023/11/05 06:58:52;;;;;;;1.20;0.50;;;9.80;99.90;;;;;;5027519;28;20454;-68
2023/11/05 07:01:18;;;;;;;1.23;0.40;;;9.80;99.90;;;;;;5027343;28;20030;-69
2023/11/05 07:03:44;;;;;;;2.33;0.73;;;9.80;99.90;;;;;;5027967;28;20031;-67
2023/11/05 07:06:12;;;;;;;1.30;0.32;;;9.80;99.90;;;;;;5029010;28;20120;-67
2023/11/05 07:08:38;;;;;;;0.55;0.40;;;9.80;99.90;;;;;;5027752;28;20037;-68
2023/11/05 07:11:06;;;;;;;6.43;0.95;;;9.80;99.90;;;;;;5026391;28;20903;-68
2023/11/05 07:13:32;;;;;;;2.15;0.47;;;9.90;99.90;;;;;;5027654;28;20040;-68
2023/11/05 07:15:58;;;;;;;1.75;0.52;;;9.90;99.90;;;;;;5026947;28;20024;-68
2023/11/05 07:18:23;;;;;;;0.47;0.40;;;9.90;99.90;;;;;;5027201;28;20030;-68
2023/11/05 07:20:49;;;;;;;0.68;0.47;;;9.90;99.90;;;;;;5014118;28;20407;-68
2023/11/05 07:23:15;;;;;;;0.85;0.60;;;10.00;99.90;;;;;;5027961;28;21231;-66
2023/11/05 07:25:40;;;;;;;0.90;0.50;;;10.00;99.90;;;;;;5027704;28;20056;-67
2023/11/05 07:28:06;;;;;;;1.23;0.38;;;10.00;99.90;;;;;;5027634;28;20395;-67
2023/11/05 07:30:32;;;;;;;0.82;0.60;;;10.10;99.90;;;;;;5027821;28;20030;-69
2023/11/05 07:32:57;;;;;;;1.33;0.75;;;10.30;99.90;;;;;;5024512;28;20029;-68
2023/11/05 07:35:23;;;;;;;1.73;0.47;;;10.50;99.90;;;;;;5026069;28;20087;-68
2023/11/05 07:37:49;;;;;;;0.93;0.57;;;10.50;99.90;;;;;;5028259;28;20033;-68
2023/11/05 07:40:15;;;;;;;0.88;0.50;;;10.60;99.90;;;;;;5027842;28;20033;-68
2023/11/05 07:42:43;;;;;;;0.43;0.40;;;10.50;99.90;;;;;;5027308;28;20034;-68
2023/11/05 07:45:09;;;;;;;1.90;0.80;;;10.50;99.90;;;;;;5026011;28;20052;-68
2023/11/05 07:47:38;;;;;;;4.38;0.73;;;10.50;99.90;;;;;;5027082;28;20067;-68
2023/11/05 07:50:10;;;;;;;0.40;0.40;;;10.40;99.90;;;;;;5025425;28;20029;-67
2023/11/05 07:52:37;;;;;;;1.38;0.30;;;10.40;99.90;;;;;;5025775;28;20030;-68
2023/11/05 07:55:12;;;;;;;1.15;0.70;;;10.30;99.90;;;;;;5027183;28;20025;-68
2023/11/05 07:57:38;;;;;;;1.67;0.40;;;10.30;99.90;;;;;;5027867;28;20100;-69
2023/11/05 08:00:07;;;;;;;0.45;0.40;;;10.30;99.90;;;;;;5024252;28;20105;-68
2023/11/05 08:02:33;;;;;;;1.85;0.60;;;10.30;99.90;;;;;;5025104;28;20054;-68
2023/11/05 08:05:03;;;;;;;6.88;2.50;;;10.30;99.90;;;;;;5024629;28;20037;-67
2023/11/05 08:07:29;;;;;;;6.15;1.95;;;10.30;99.90;;;;;;5026991;28;20075;-68
2023/11/05 08:09:54;;;;;;;7.90;2.13;;;10.40;99.90;;;;;;5026696;28;20088;-67
2023/11/05 08:12:21;;;;;;;18.27;10.38;;;10.40;99.90;;;;;;5027280;28;20033;-67
2023/11/05 08:14:47;;;;;;;18.67;9.43;;;10.40;99.90;;;;;;5026856;28;20032;-67
2023/11/05 08:17:12;;;;;;;10.50;5.18;;;10.50;99.90;;;;;;5025371;28;20495;-67
2023/11/05 08:19:38;;;;;;;5.45;2.45;;;10.60;99.90;;;;;;5027443;28;20045;-67
2023/11/05 08:22:04;;;;;;;13.45;10.20;;;10.60;99.90;;;;;;5002957;28;20045;-68
2023/11/05 08:24:30;;;;;;;13.77;9.50;;;10.60;99.90;;;;;;5025776;28;20021;-68
2023/11/05 08:26:55;;;;;;;9.52;7.50;;;10.60;99.90;;;;;;5026799;28;20041;-69
2023/11/05 08:29:21;;;;;;;3.65;1.90;;;10.60;99.90;;;;;;5026541;28;20041;-68
2023/11/05 08:31:47;;;;;;;1.30;1.08;;;10.60;99.90;;;;;;5025119;28;20045;-68
2023/11/05 08:34:13;;;;;;;3.53;3.00;;;10.60;99.90;;;;;;5025941;28;20044;-68
2023/11/05 08:36:38;;;;;;;1.30;1.20;;;10.60;99.90;;;;;;5027001;28;20665;-68
2023/11/05 08:39:05;;;;;;;1.58;0.95;;;10.50;99.90;;;;;;5025972;28;20041;-69
2023/11/05 08:41:31;;;;;;;1.08;0.90;;;10.50;99.90;;;;;;5024747;28;20076;-68
2023/11/05 08:43:57;;;;;;;2.05;1.15;;;10.60;99.90;;;;;;5025630;28;20029;-68
2023/11/05 08:46:23;;;;;;;0.82;0.70;;;10.60;99.90;;;;;;5024463;28;20132;-69
2023/11/05 08:48:48;;;;;;;0.75;0.75;;;10.60;99.90;;;;;;5026268;28;20037;-68
2023/11/05 08:51:25;;;;;;;0.68;0.50;;;10.70;99.90;;;;;;5025898;28;20029;-68
2023/11/05 08:53:51;;;;;;;1.70;1.10;;;10.70;99.90;;;;;;5025838;28;20033;-68
2023/11/05 08:56:16;;;;;;;3.95;1.35;;;10.80;99.90;;;;;;5026001;28;20511;-69
2023/11/05 08:58:42;;;;;;;0.70;0.60;;;10.90;99.90;;;;;;5026257;28;20087;-69
2023/11/05 09:01:07;;;;;;;1.90;1.60;;;11.00;99.90;;;;;;5022329;28;20026;-69
2023/11/05 09:03:33;;;;;;;2.42;1.30;;;11.10;99.90;;;;;;5024925;28;20104;-69
2023/11/05 09:05:58;;;;;;;1.80;1.10;;;11.20;99.90;;;;;;5026491;28;20573;-68
2023/11/05 09:08:24;;;;;;;2.47;1.38;;;11.30;99.90;;;;;;5025537;28;20033;-68
2023/11/05 09:10:50;;;;;;;2.22;1.00;;;11.40;99.90;;;;;;5026283;28;20025;-68
2023/11/05 09:13:16;;;;;;;5.47;0.93;;;11.40;99.90;;;;;;5025402;28;20509;-68
2023/11/05 09:15:43;;;;;;;1.17;0.40;;;11.60;99.90;;;;;;5025468;28;20152;-69
2023/11/05 09:18:09;;;;;;;2.25;0.90;;;11.60;99.90;;;;;;5023722;28;21638;-68
2023/11/05 09:20:34;;;;;;;1.35;1.10;;;11.70;99.90;;;;;;5026010;28;20026;-69
2023/11/05 09:23:00;;;;;;;0.82;0.50;;;11.60;99.90;;;;;;5001263;28;20038;-69
2023/11/05 09:25:27;;;;;;;1.55;0.60;;;11.50;99.90;;;;;;5026189;28;20022;-69
2023/11/05 09:27:53;;;;;;;0.30;0.30;;;11.50;99.90;;;;;;5025463;28;20483;-68
2023/11/05 09:30:20;;;;;;;2.60;0.50;;;11.40;99.90;;;;;;5022458;28;20509;-72
2023/11/05 09:32:46;;;;;;;0.50;0.40;;;11.30;99.90;;;;;;5024279;28;20045;-68
2023/11/05 09:35:13;;;;;;;0.60;0.60;;;11.10;99.90;;;;;;5025527;28;20029;-69
2023/11/05 09:37:40;;;;;;;1.13;0.60;;;11.10;99.90;;;;;;5024473;28;20494;-68
2023/11/05 09:40:07;;;;;;;3.97;0.50;;;11.00;99.90;;;;;;5025362;28;20045;-69
2023/11/05 09:42:40;;;;;;;1.02;0.68;;;11.10;99.90;;;;;;5026099;28;20164;-68
2023/11/05 09:45:06;;;;;;;1.90;1.05;;;11.10;99.90;;;;;;5024556;28;20028;-69
2023/11/05 09:47:33;;;;;;;7.10;1.20;;;11.20;99.90;;;;;;5025557;28;20041;-69
2023/11/05 09:49:59;;;;;;;3.67;1.33;;;11.30;99.90;;;;;;5025030;28;20032;-68
2023/11/05 09:52:28;;;;;;;5.47;2.95;;;11.30;99.90;;;;;;5025068;28;20029;-68
2023/11/05 09:54:54;;;;;;;3.50;1.17;;;11.20;99.90;;;;;;5025627;28;20030;-68
2023/11/05 09:57:20;;;;;;;1.15;0.90;;;11.20;99.90;;;;;;5023855;28;20479;-68
2023/11/05 09:59:48;;;;;;;1.35;0.80;;;11.30;99.90;;;;;;5021766;28;20045;-69
2023/11/05 10:02:14;;;;;;;3.33;1.30;;;11.30;99.90;;;;;;5025806;28;20394;-68
2023/11/05 10:04:40;;;;;;;5.50;1.95;;;11.30;99.90;;;;;;5024696;28;20031;-68
2023/11/05 10:07:05;;;;;;;3.00;2.42;;;11.20;99.90;;;;;;5026228;28;20021;-68
2023/11/05 10:09:31;;;;;;;7.38;2.97;;;11.10;99.90;;;;;;5027888;28;20041;-68
2023/11/05 10:11:57;;;;;;;0.95;0.80;;;11.00;99.90;;;;;;5028254;28;20099;-67
2023/11/05 10:14:22;;;;;;;2.30;1.50;;;10.90;99.90;;;;;;5026972;28;20424;-67
2023/11/05 10:16:48;;;;;;;6.25;1.77;;;10.80;99.90;;;;;;5027024;28;20029;-67
2023/11/05 10:19:14;;;;;;;5.70;2.33;;;10.80;99.90;;;;;;5025342;28;20049;-67
2023/11/05 10:21:39;;;;;;;3.58;1.33;;;10.80;99.90;;;;;;5009193;28;20537;-67
2023/11/05 10:24:07;;;;;;;6.43;2.38;;;10.80;99.90;;;;;;5028186;28;20799;-67
2023/11/05 10:26:33;;;;;;;61.67;20.92;;;10.90;99.90;;;;;;5027832;28;20083;-68
2023/11/05 10:29:00;;;;;;;22.58;8.68;;;10.80;99.90;;;;;;5027774;28;20079;-67
2023/11/05 10:31:27;;;;;;;3.10;1.55;;;10.80;99.90;;;;;;5027042;28;20040;-69
2023/11/05 10:33:56;;;;;;;7.90;3.45;;;10.80;99.90;;;;;;5027158;28;20033;-66
2023/11/05 10:36:25;;;;;;;34.15;13.88;;;10.80;99.90;;;;;;5029211;28;20060;-68
2023/11/05 10:38:51;;;;;;;4.07;2.08;;;10.70;99.90;;;;;;5027443;28;20053;-67
2023/11/05 10:41:18;;;;;;;2.55;1.42;;;10.60;99.90;;;;;;5028091;28;20029;-67
2023/11/05 10:43:48;;;;;;;2.72;1.50;;;10.60;99.90;;;;;;5028803;28;20541;-69
2023/11/05 10:46:19;;;;;;;4.65;2.30;;;10.60;99.90;;;;;;5027569;28;20091;-69
2023/11/05 10:48:51;;;;;;;7.70;3.30;;;10.70;99.90;;;;;;5024924;28;20029;-68
2023/11/05 10:51:21;;;;;;;5.78;2.83;;;10.70;99.90;;;;;;5028474;28;20045;-69
2023/11/05 10:53:49;;;;;;;5.15;2.50;;;10.70;99.90;;;;;;5026426;28;20029;-68
2023/11/05 10:56:30;;;;;;;3.65;1.90;;;10.80;99.90;;;;;;5023321;28;20025;-68
2023/11/05 10:58:56;;;;;;;7.93;3.45;;;10.80;99.90;;;;;;5026019;28;20367;-68
2023/11/05 11:01:26;;;;;;;4.88;2.90;;;10.90;99.90;;;;;;5028091;28;20033;-68
2023/11/05 11:03:53;;;;;;;3.95;2.00;;;11.00;99.90;;;;;;5026334;28;20033;-69
2023/11/05 11:06:19;;;;;;;6.40;4.00;;;11.00;99.90;;;;;;5028293;28;20415;-68
2023/11/05 11:09:22;;;;;;;7.70;3.15;;;11.10;99.90;;;;;;5026237;28;20044;-69
2023/11/05 11:11:48;;;;;;;7.47;2.40;;;11.20;99.90;;;;;;5027553;28;20080;-68
2023/11/05 11:14:15;;;;;;;5.03;2.83;;;11.30;99.90;;;;;;5028255;28;20041;-67
2023/11/05 11:16:42;;;;;;;2.28;1.90;;;11.30;99.90;;;;;;5024204;28;20026;-68
2023/11/05 11:19:14;;;;;;;4.15;1.58;;;11.40;99.90;;;;;;5026596;28;20498;-68
2023/11/05 11:22:04;;;;;;;2.78;1.77;;;11.40;99.90;;;;;;5028990;28;20469;-68
2023/11/05 11:24:36;;;;;;;4.50;2.88;;;11.50;99.90;;;;;;5027323;28;20132;-68
2023/11/05 11:27:04;;;;;;;4.80;1.52;;;11.50;99.90;;;;;;5028349;28;20457;-68
2023/11/05 11:29:34;;;;;;;2.45;1.73;;;11.50;99.90;;;;;;5026016;28;20029;-68
2023/11/05 11:32:01;;;;;;;2.45;1.50;;;11.60;99.90;;;;;;5027837;28;20843;-68
2023/11/05 11:34:27;;;;;;;2.63;1.13;;;11.40;99.90;;;;;;5026845;28;20608;-68
2023/11/05 11:36:57;;;;;;;1.98;1.33;;;11.40;99.90;;;;;;5026989;28;20038;-67
2023/11/05 11:39:23;;;;;;;4.13;1.13;;;11.30;99.90;;;;;;5027105;28;20013;-68
2023/11/05 11:41:48;;;;;;;3.20;1.80;;;11.20;99.90;;;;;;5025144;28;21950;-69
2023/11/05 11:44:15;;;;;;;7.93;2.08;;;11.20;99.90;;;;;;5026164;28;20048;-68
2023/11/05 11:46:40;;;;;;;2.58;1.50;;;11.10;99.90;;;;;;5026733;28;20034;-68
2023/11/05 11:49:11;;;;;;;3.08;2.00;;;11.00;99.90;;;;;;5027878;28;20017;-68
2023/11/05 11:51:38;;;;;;;2.42;1.23;;;11.00;99.90;;;;;;5028135;28;20033;-68
2023/11/05 11:54:03;;;;;;;5.85;1.60;;;11.00;99.90;;;;;;5027434;28;20638;-68
2023/11/05 11:56:29;;;;;;;3.75;1.85;;;11.00;99.90;;;;;;5025670;28;20040;-68
2023/11/05 11:59:03;;;;;;;9.13;5.00;;;11.00;99.90;;;;;;5025985;28;20495;-68
2023/11/05 12:01:28;;;;;;;14.85;8.07;;;11.20;99.90;;;;;;5027942;28;20018;-69
2023/11/05 12:03:59;;;;;;;15.95;10.15;;;11.30;99.90;;;;;;5026816;28;20029;-69
2023/11/05 12:06:27;;;;;;;7.68;4.60;;;11.30;99.90;;;;;;5027309;28;20475;-68
2023/11/05 12:08:54;;;;;;;14.30;12.48;;;11.20;99.90;;;;;;5024839;28;20025;-67
2023/11/05 12:11:20;;;;;;;5.07;2.20;;;11.20;99.90;;;;;;5038306;28;20048;-68
2023/11/05 12:13:47;;;;;;;5.35;1.98;;;11.10;99.90;;;;;;5026256;28;20029;-68
2023/11/05 12:16:15;;;;;;;4.90;2.55;;;11.20;99.90;;;;;;5027237;28;20048;-68
2023/11/05 12:18:42;;;;;;;4.88;2.17;;;11.20;99.90;;;;;;5025841;28;20041;-68
2023/11/05 12:21:09;;;;;;;7.85;2.67;;;11.20;99.90;;;;;;5022896;28;20506;-69
2023/11/05 12:23:35;;;;;;;9.25;2.80;;;11.30;99.90;;;;;;5001601;28;20053;-68
2023/11/05 12:26:03;;;;;;;14.35;3.63;;;11.40;99.90;;;;;;5024847;28;20025;-68
2023/11/05 12:28:29;;;;;;;8.00;2.22;;;11.50;99.90;;;;;;5027443;28;20022;-69
2023/11/05 12:31:03;;;;;;;5.65;2.60;;;11.40;99.90;;;;;;5024837;28;21316;-68
2023/11/05 12:33:33;;;;;;;5.20;2.90;;;11.40;99.90;;;;;;5025455;28;20029;-67
2023/11/05 12:35:59;;;;;;;4.60;1.85;;;11.50;99.90;;;;;;5025547;28;20061;-67
2023/11/05 12:38:25;;;;;;;8.70;1.92;;;11.40;99.90;;;;;;5025852;28;20032;-67
2023/11/05 12:40:52;;;;;;;4.68;1.17;;;11.50;99.90;;;;;;5025993;28;20383;-67
2023/11/05 12:43:17;;;;;;;3.10;1.50;;;11.60;99.90;;;;;;5026826;28;20112;-67
2023/11/05 12:45:43;;;;;;;1.60;1.10;;;11.80;99.90;;;;;;5027378;28;20108;-68
2023/11/05 12:48:09;;;;;;;2.35;1.40;;;12.10;99.90;;;;;;5026552;28;20028;-68